sensor_id;sensor_type;location;lat;lon;timestamp;P1;durP1;ratioP1;P2;durP2;ratioP2
57331;SDS011;43164;50.908;18.092;2022-11-11T00:01:30;35.20;;;16.60;;
57331;SDS011;43164;50.908;18.092;2022-11-11T00:03:59;30.40;;;14.80;;
57331;SDS011;43164;50.908;18.092;2022-11-11T00:06:27;28.30;;;14.40;;
57331;SDS011;43164;50.908;18.092;2022-11-11T00:08:54;33.50;;;15.80;;
57331;SDS011;43164;50.908;18.092;2022-11-11T00:11:22;30.50;;;14.80;;
57331;SDS011;43164;50.908;18.092;2022-11-11T00:13:50;33.00;;;15.30;;
57331;SDS011;43164;50.908;18.092;2022-11-11T00:16:18;27.70;;;14.60;;
57331;SDS011;43164;50.908;18.092;2022-11-11T00:18:47;30.20;;;14.90;;
57331;SDS011;43164;50.908;18.092;2022-11-11T00:21:35;31.80;;;14.70;;
57331;SDS011;43164;50.908;18.092;2022-11-11T00:24:04;29.60;;;15.10;;
57331;SDS011;43164;50.908;18.092;2022-11-11T00:26:57;29.70;;;13.90;;
57331;SDS011;43164;50.908;18.092;2022-11-11T00:29:25;34.50;;;15.60;;
57331;SDS011;43164;50.908;18.092;2022-11-11T00:31:53;41.20;;;17.30;;
57331;SDS011;43164;50.908;18.092;2022-11-11T00:34:41;42.10;;;18.20;;
57331;SDS011;43164;50.908;18.092;2022-11-11T00:37:31;31.30;;;16.40;;
57331;SDS011;43164;50.908;18.092;2022-11-11T00:40:00;38.30;;;17.80;;
57331;SDS011;43164;50.908;18.092;2022-11-11T00:42:28;34.70;;;16.50;;
57331;SDS011;43164;50.908;18.092;2022-11-11T00:44:56;29.70;;;14.50;;
57331;SDS011;43164;50.908;18.092;2022-11-11T00:47:24;26.80;;;13.10;;
57331;SDS011;43164;50.908;18.092;2022-11-11T00:50:14;32.90;;;15.90;;
57331;SDS011;43164;50.908;18.092;2022-11-11T00:53:07;35.80;;;17.50;;
57331;SDS011;43164;50.908;18.092;2022-11-11T00:55:39;39.30;;;18.40;;
57331;SDS011;43164;50.908;18.092;2022-11-11T00:58:07;41.00;;;17.80;;
57331;SDS011;43164;50.908;18.092;2022-11-11T01:00:35;40.40;;;20.00;;
57331;SDS011;43164;50.908;18.092;2022-11-11T01:03:03;39.10;;;18.90;;
57331;SDS011;43164;50.908;18.092;2022-11-11T01:05:30;36.70;;;18.30;;
57331;SDS011;43164;50.908;18.092;2022-11-11T01:07:58;35.10;;;16.70;;
57331;SDS011;43164;50.908;18.092;2022-11-11T01:10:25;33.90;;;15.60;;
57331;SDS011;43164;50.908;18.092;2022-11-11T01:13:16;32.30;;;15.30;;
57331;SDS011;43164;50.908;18.092;2022-11-11T01:15:48;31.60;;;16.30;;
57331;SDS011;43164;50.908;18.092;2022-11-11T01:18:18;39.30;;;18.10;;
57331;SDS011;43164;50.908;18.092;2022-11-11T01:20:47;36.60;;;16.70;;
57331;SDS011;43164;50.908;18.092;2022-11-11T01:23:42;42.90;;;19.20;;
57331;SDS011;43164;50.908;18.092;2022-11-11T01:28:50;36.70;;;17.30;;
57331;SDS011;43164;50.908;18.092;2022-11-11T01:31:20;32.00;;;14.90;;
57331;SDS011;43164;50.908;18.092;2022-11-11T01:33:49;30.20;;;15.70;;
57331;SDS011;43164;50.908;18.092;2022-11-11T01:36:21;31.70;;;13.60;;
57331;SDS011;43164;50.908;18.092;2022-11-11T01:38:52;32.50;;;14.20;;
57331;SDS011;43164;50.908;18.092;2022-11-11T01:41:22;32.10;;;15.20;;
57331;SDS011;43164;50.908;18.092;2022-11-11T01:44:17;33.90;;;15.60;;
57331;SDS011;43164;50.908;18.092;2022-11-11T01:47:05;31.60;;;15.60;;
57331;SDS011;43164;50.908;18.092;2022-11-11T01:49:40;34.90;;;16.30;;
57331;SDS011;43164;50.908;18.092;2022-11-11T01:52:32;38.50;;;17.70;;
57331;SDS011;43164;50.908;18.092;2022-11-11T01:55:09;32.70;;;15.10;;
57331;SDS011;43164;50.908;18.092;2022-11-11T02:00:24;32.00;;;14.90;;
57331;SDS011;43164;50.908;18.092;2022-11-11T02:02:56;33.20;;;16.20;;
57331;SDS011;43164;50.908;18.092;2022-11-11T02:05:32;32.90;;;14.80;;
57331;SDS011;43164;50.908;18.092;2022-11-11T02:08:16;28.50;;;13.60;;
57331;SDS011;43164;50.908;18.092;2022-11-11T02:11:15;21.00;;;10.80;;
57331;SDS011;43164;50.908;18.092;2022-11-11T02:14:06;16.70;;;8.10;;
57331;SDS011;43164;50.908;18.092;2022-11-11T02:16:52;17.30;;;8.60;;
57331;SDS011;43164;50.908;18.092;2022-11-11T02:19:21;18.00;;;8.90;;
57331;SDS011;43164;50.908;18.092;2022-11-11T02:22:00;20.70;;;10.20;;
57331;SDS011;43164;50.908;18.092;2022-11-11T02:24:29;19.50;;;9.60;;
57331;SDS011;43164;50.908;18.092;2022-11-11T02:26:57;22.00;;;10.80;;
57331;SDS011;43164;50.908;18.092;2022-11-11T02:29:25;23.70;;;11.90;;
57331;SDS011;43164;50.908;18.092;2022-11-11T02:31:54;24.60;;;12.90;;
57331;SDS011;43164;50.908;18.092;2022-11-11T02:34:32;27.90;;;13.00;;
57331;SDS011;43164;50.908;18.092;2022-11-11T02:37:02;25.30;;;12.50;;
57331;SDS011;43164;50.908;18.092;2022-11-11T02:42:04;28.10;;;13.00;;
57331;SDS011;43164;50.908;18.092;2022-11-11T02:44:38;27.70;;;12.50;;
57331;SDS011;43164;50.908;18.092;2022-11-11T02:47:05;26.00;;;13.30;;
57331;SDS011;43164;50.908;18.092;2022-11-11T02:49:33;29.20;;;13.70;;
57331;SDS011;43164;50.908;18.092;2022-11-11T02:52:02;22.30;;;12.10;;
57331;SDS011;43164;50.908;18.092;2022-11-11T02:54:34;31.40;;;14.70;;
57331;SDS011;43164;50.908;18.092;2022-11-11T02:57:02;32.40;;;15.70;;
57331;SDS011;43164;50.908;18.092;2022-11-11T02:59:35;32.30;;;15.60;;
57331;SDS011;43164;50.908;18.092;2022-11-11T03:02:04;34.10;;;15.70;;
57331;SDS011;43164;50.908;18.092;2022-11-11T03:04:32;28.30;;;15.10;;
57331;SDS011;43164;50.908;18.092;2022-11-11T03:07:01;30.50;;;15.70;;
57331;SDS011;43164;50.908;18.092;2022-11-11T03:09:29;34.70;;;15.10;;
57331;SDS011;43164;50.908;18.092;2022-11-11T03:11:57;28.70;;;15.00;;
57331;SDS011;43164;50.908;18.092;2022-11-11T03:14:25;32.30;;;15.10;;
57331;SDS011;43164;50.908;18.092;2022-11-11T03:16:52;32.30;;;15.20;;
57331;SDS011;43164;50.908;18.092;2022-11-11T03:19:40;28.20;;;14.40;;
57331;SDS011;43164;50.908;18.092;2022-11-11T03:22:08;27.80;;;13.40;;
57331;SDS011;43164;50.908;18.092;2022-11-11T03:24:35;27.20;;;13.50;;
57331;SDS011;43164;50.908;18.092;2022-11-11T03:27:23;31.40;;;14.10;;
57331;SDS011;43164;50.908;18.092;2022-11-11T03:29:51;24.70;;;12.60;;
57331;SDS011;43164;50.908;18.092;2022-11-11T03:32:19;25.60;;;12.10;;
57331;SDS011;43164;50.908;18.092;2022-11-11T03:34:47;23.90;;;12.10;;
57331;SDS011;43164;50.908;18.092;2022-11-11T03:37:14;27.60;;;13.90;;
57331;SDS011;43164;50.908;18.092;2022-11-11T03:40:02;26.70;;;12.90;;
57331;SDS011;43164;50.908;18.092;2022-11-11T03:42:30;26.10;;;12.90;;
57331;SDS011;43164;50.908;18.092;2022-11-11T03:44:57;25.50;;;13.60;;
57331;SDS011;43164;50.908;18.092;2022-11-11T03:47:25;29.80;;;14.90;;
57331;SDS011;43164;50.908;18.092;2022-11-11T03:49:52;28.50;;;13.90;;
57331;SDS011;43164;50.908;18.092;2022-11-11T03:52:20;31.70;;;14.70;;
57331;SDS011;43164;50.908;18.092;2022-11-11T03:54:48;26.20;;;12.90;;
57331;SDS011;43164;50.908;18.092;2022-11-11T03:57:15;26.10;;;12.40;;
57331;SDS011;43164;50.908;18.092;2022-11-11T03:59:59;30.50;;;15.20;;
57331;SDS011;43164;50.908;18.092;2022-11-11T04:02:27;31.00;;;14.60;;
57331;SDS011;43164;50.908;18.092;2022-11-11T04:05:13;33.40;;;14.20;;
57331;SDS011;43164;50.908;18.092;2022-11-11T04:08:01;30.00;;;14.60;;
57331;SDS011;43164;50.908;18.092;2022-11-11T04:10:48;29.90;;;15.80;;
57331;SDS011;43164;50.908;18.092;2022-11-11T04:13:16;29.30;;;13.30;;
57331;SDS011;43164;50.908;18.092;2022-11-11T04:16:03;28.40;;;11.80;;
57331;SDS011;43164;50.908;18.092;2022-11-11T04:18:38;25.30;;;13.80;;
57331;SDS011;43164;50.908;18.092;2022-11-11T04:21:26;36.10;;;15.00;;
57331;SDS011;43164;50.908;18.092;2022-11-11T04:24:11;30.10;;;14.50;;
57331;SDS011;43164;50.908;18.092;2022-11-11T04:27:04;30.80;;;14.60;;
57331;SDS011;43164;50.908;18.092;2022-11-11T04:29:40;34.80;;;15.60;;
57331;SDS011;43164;50.908;18.092;2022-11-11T04:32:09;32.20;;;16.30;;
57331;SDS011;43164;50.908;18.092;2022-11-11T04:34:59;31.40;;;15.30;;
57331;SDS011;43164;50.908;18.092;2022-11-11T04:37:31;36.60;;;17.90;;
57331;SDS011;43164;50.908;18.092;2022-11-11T04:40:00;38.30;;;17.00;;
57331;SDS011;43164;50.908;18.092;2022-11-11T04:42:46;35.50;;;17.40;;
57331;SDS011;43164;50.908;18.092;2022-11-11T04:45:13;40.90;;;18.20;;
57331;SDS011;43164;50.908;18.092;2022-11-11T04:48:04;35.50;;;17.80;;
57331;SDS011;43164;50.908;18.092;2022-11-11T04:50:39;37.50;;;17.50;;
57331;SDS011;43164;50.908;18.092;2022-11-11T04:53:10;39.40;;;18.30;;
57331;SDS011;43164;50.908;18.092;2022-11-11T04:55:39;42.90;;;20.30;;
57331;SDS011;43164;50.908;18.092;2022-11-11T04:58:28;41.80;;;19.90;;
57331;SDS011;43164;50.908;18.092;2022-11-11T05:00:57;42.70;;;19.40;;
57331;SDS011;43164;50.908;18.092;2022-11-11T05:03:25;36.40;;;16.90;;
57331;SDS011;43164;50.908;18.092;2022-11-11T05:05:54;36.90;;;17.40;;
57331;SDS011;43164;50.908;18.092;2022-11-11T05:08:47;37.40;;;17.10;;
57331;SDS011;43164;50.908;18.092;2022-11-11T05:11:26;31.80;;;15.30;;
57331;SDS011;43164;50.908;18.092;2022-11-11T05:13:56;32.50;;;15.30;;
57331;SDS011;43164;50.908;18.092;2022-11-11T05:16:44;32.80;;;15.70;;
57331;SDS011;43164;50.908;18.092;2022-11-11T05:19:33;34.30;;;15.40;;
57331;SDS011;43164;50.908;18.092;2022-11-11T05:22:27;33.90;;;15.30;;
57331;SDS011;43164;50.908;18.092;2022-11-11T05:24:57;29.10;;;14.90;;
57331;SDS011;43164;50.908;18.092;2022-11-11T05:27:44;30.50;;;15.10;;
57331;SDS011;43164;50.908;18.092;2022-11-11T05:30:12;32.20;;;14.90;;
57331;SDS011;43164;50.908;18.092;2022-11-11T05:32:41;35.80;;;16.20;;
57331;SDS011;43164;50.908;18.092;2022-11-11T05:35:09;30.40;;;15.20;;
57331;SDS011;43164;50.908;18.092;2022-11-11T05:37:40;30.60;;;15.60;;
57331;SDS011;43164;50.908;18.092;2022-11-11T05:40:09;32.60;;;15.10;;
57331;SDS011;43164;50.908;18.092;2022-11-11T05:42:40;37.40;;;16.90;;
57331;SDS011;43164;50.908;18.092;2022-11-11T05:45:09;32.80;;;16.10;;
57331;SDS011;43164;50.908;18.092;2022-11-11T05:47:37;36.40;;;17.20;;
57331;SDS011;43164;50.908;18.092;2022-11-11T05:50:05;39.50;;;18.10;;
57331;SDS011;43164;50.908;18.092;2022-11-11T05:52:34;36.90;;;17.30;;
57331;SDS011;43164;50.908;18.092;2022-11-11T05:55:03;37.60;;;16.80;;
57331;SDS011;43164;50.908;18.092;2022-11-11T05:57:33;33.60;;;16.80;;
57331;SDS011;43164;50.908;18.092;2022-11-11T06:00:03;33.20;;;16.40;;
57331;SDS011;43164;50.908;18.092;2022-11-11T06:02:36;35.60;;;17.20;;
57331;SDS011;43164;50.908;18.092;2022-11-11T06:05:09;34.90;;;16.80;;
57331;SDS011;43164;50.908;18.092;2022-11-11T06:07:42;40.40;;;17.70;;
57331;SDS011;43164;50.908;18.092;2022-11-11T06:10:11;37.10;;;17.60;;
57331;SDS011;43164;50.908;18.092;2022-11-11T06:13:00;33.90;;;17.30;;
57331;SDS011;43164;50.908;18.092;2022-11-11T06:15:37;45.90;;;20.50;;
57331;SDS011;43164;50.908;18.092;2022-11-11T06:18:12;42.70;;;20.90;;
57331;SDS011;43164;50.908;18.092;2022-11-11T06:20:45;47.10;;;23.40;;
57331;SDS011;43164;50.908;18.092;2022-11-11T06:23:24;46.90;;;22.50;;
57331;SDS011;43164;50.908;18.092;2022-11-11T06:25:52;43.80;;;22.00;;
57331;SDS011;43164;50.908;18.092;2022-11-11T06:35:57;43.80;;;21.60;;
57331;SDS011;43164;50.908;18.092;2022-11-11T06:41:31;42.20;;;21.30;;
57331;SDS011;43164;50.908;18.092;2022-11-11T06:44:07;45.00;;;21.50;;
57331;SDS011;43164;50.908;18.092;2022-11-11T07:06:40;47.10;;;20.00;;
57331;SDS011;43164;50.908;18.092;2022-11-11T07:09:13;42.10;;;20.40;;
57331;SDS011;43164;50.908;18.092;2022-11-11T07:11:49;41.80;;;19.40;;
57331;SDS011;43164;50.908;18.092;2022-11-11T07:14:22;33.40;;;17.00;;
57331;SDS011;43164;50.908;18.092;2022-11-11T07:16:59;31.50;;;15.90;;
57331;SDS011;43164;50.908;18.092;2022-11-11T07:19:33;31.20;;;15.70;;
57331;SDS011;43164;50.908;18.092;2022-11-11T07:22:03;29.30;;;15.20;;
57331;SDS011;43164;50.908;18.092;2022-11-11T07:24:33;29.40;;;15.50;;
57331;SDS011;43164;50.908;18.092;2022-11-11T07:27:07;29.50;;;14.50;;
57331;SDS011;43164;50.908;18.092;2022-11-11T07:29:48;30.20;;;15.00;;
57331;SDS011;43164;50.908;18.092;2022-11-11T07:32:23;25.60;;;13.40;;
57331;SDS011;43164;50.908;18.092;2022-11-11T07:34:56;26.20;;;12.70;;
57331;SDS011;43164;50.908;18.092;2022-11-11T07:37:56;27.90;;;13.20;;
57331;SDS011;43164;50.908;18.092;2022-11-11T07:40:32;31.60;;;12.90;;
57331;SDS011;43164;50.908;18.092;2022-11-11T07:43:14;26.00;;;13.20;;
57331;SDS011;43164;50.908;18.092;2022-11-11T07:45:43;25.60;;;12.70;;
57331;SDS011;43164;50.908;18.092;2022-11-11T07:48:17;27.50;;;12.60;;
57331;SDS011;43164;50.908;18.092;2022-11-11T07:57:51;25.50;;;11.30;;
57331;SDS011;43164;50.908;18.092;2022-11-11T08:00:24;22.80;;;10.20;;
57331;SDS011;43164;50.908;18.092;2022-11-11T08:02:57;22.70;;;11.00;;
57331;SDS011;43164;50.908;18.092;2022-11-11T08:05:27;19.10;;;9.70;;
57331;SDS011;43164;50.908;18.092;2022-11-11T08:08:10;21.50;;;9.70;;
57331;SDS011;43164;50.908;18.092;2022-11-11T08:10:39;23.60;;;9.40;;
57331;SDS011;43164;50.908;18.092;2022-11-11T08:16:22;19.00;;;9.30;;
57331;SDS011;43164;50.908;18.092;2022-11-11T08:18:57;18.10;;;9.50;;
57331;SDS011;43164;50.908;18.092;2022-11-11T08:21:27;19.30;;;8.70;;
57331;SDS011;43164;50.908;18.092;2022-11-11T08:24:00;20.00;;;9.10;;
57331;SDS011;43164;50.908;18.092;2022-11-11T08:26:31;19.50;;;9.10;;
57331;SDS011;43164;50.908;18.092;2022-11-11T08:29:03;18.60;;;8.70;;
57331;SDS011;43164;50.908;18.092;2022-11-11T08:31:37;18.70;;;8.10;;
57331;SDS011;43164;50.908;18.092;2022-11-11T08:34:13;19.10;;;8.90;;
57331;SDS011;43164;50.908;18.092;2022-11-11T08:36:41;17.50;;;8.20;;
57331;SDS011;43164;50.908;18.092;2022-11-11T08:39:16;18.10;;;7.80;;
57331;SDS011;43164;50.908;18.092;2022-11-11T08:41:51;18.40;;;8.30;;
57331;SDS011;43164;50.908;18.092;2022-11-11T08:46:57;19.20;;;8.30;;
57331;SDS011;43164;50.908;18.092;2022-11-11T08:49:34;16.80;;;7.40;;
57331;SDS011;43164;50.908;18.092;2022-11-11T08:52:05;18.00;;;8.00;;
57331;SDS011;43164;50.908;18.092;2022-11-11T08:54:37;16.00;;;7.30;;
57331;SDS011;43164;50.908;18.092;2022-11-11T08:57:10;15.40;;;7.50;;
57331;SDS011;43164;50.908;18.092;2022-11-11T08:59:44;15.80;;;6.90;;
57331;SDS011;43164;50.908;18.092;2022-11-11T09:02:15;16.10;;;7.30;;
57331;SDS011;43164;50.908;18.092;2022-11-11T09:04:50;14.50;;;7.00;;
57331;SDS011;43164;50.908;18.092;2022-11-11T09:07:29;15.50;;;6.00;;
57331;SDS011;43164;50.908;18.092;2022-11-11T09:10:01;15.90;;;6.80;;
57331;SDS011;43164;50.908;18.092;2022-11-11T09:12:33;14.40;;;6.50;;
57331;SDS011;43164;50.908;18.092;2022-11-11T09:21:14;14.10;;;6.00;;
57331;SDS011;43164;50.908;18.092;2022-11-11T09:34:25;12.30;;;5.10;;
57331;SDS011;43164;50.908;18.092;2022-11-11T10:06:33;13.00;;;5.20;;
57331;SDS011;43164;50.908;18.092;2022-11-11T10:22:22;11.80;;;5.30;;
57331;SDS011;43164;50.908;18.092;2022-11-11T10:25:07;14.20;;;5.50;;
57331;SDS011;43164;50.908;18.092;2022-11-11T10:27:45;14.90;;;5.90;;
57331;SDS011;43164;50.908;18.092;2022-11-11T10:30:31;12.70;;;5.10;;
57331;SDS011;43164;50.908;18.092;2022-11-11T10:33:11;11.30;;;4.60;;
57331;SDS011;43164;50.908;18.092;2022-11-11T10:36:08;10.30;;;4.50;;
57331;SDS011;43164;50.908;18.092;2022-11-11T10:38:59;10.10;;;4.60;;
57331;SDS011;43164;50.908;18.092;2022-11-11T10:41:38;13.80;;;4.80;;
57331;SDS011;43164;50.908;18.092;2022-11-11T10:44:32;11.50;;;5.10;;
57331;SDS011;43164;50.908;18.092;2022-11-11T10:50:20;11.20;;;5.20;;
57331;SDS011;43164;50.908;18.092;2022-11-11T10:59:22;12.80;;;4.80;;
57331;SDS011;43164;50.908;18.092;2022-11-11T11:02:23;11.40;;;4.80;;
57331;SDS011;43164;50.908;18.092;2022-11-11T11:12:14;13.10;;;3.60;;
57331;SDS011;43164;50.908;18.092;2022-11-11T11:15:57;11.90;;;4.30;;
57331;SDS011;43164;50.908;18.092;2022-11-11T11:18:29;8.90;;;3.50;;
57331;SDS011;43164;50.908;18.092;2022-11-11T11:24:37;13.50;;;4.20;;
57331;SDS011;43164;50.908;18.092;2022-11-11T11:37:31;10.70;;;4.10;;
57331;SDS011;43164;50.908;18.092;2022-11-11T11:49:02;13.20;;;3.70;;
57331;SDS011;43164;50.908;18.092;2022-11-11T12:28:01;9.60;;;3.10;;
57331;SDS011;43164;50.908;18.092;2022-11-11T12:33:53;10.40;;;2.90;;
57331;SDS011;43164;50.908;18.092;2022-11-11T12:43:35;8.70;;;3.10;;
57331;SDS011;43164;50.908;18.092;2022-11-11T12:50:07;8.30;;;3.50;;
57331;SDS011;43164;50.908;18.092;2022-11-11T12:53:01;12.30;;;3.70;;
57331;SDS011;43164;50.908;18.092;2022-11-11T12:55:59;9.30;;;3.50;;
57331;SDS011;43164;50.908;18.092;2022-11-11T13:04:48;7.90;;;3.00;;
57331;SDS011;43164;50.908;18.092;2022-11-11T13:07:43;10.60;;;3.80;;
57331;SDS011;43164;50.908;18.092;2022-11-11T13:13:45;10.90;;;4.20;;
57331;SDS011;43164;50.908;18.092;2022-11-11T13:16:24;9.40;;;3.40;;
57331;SDS011;43164;50.908;18.092;2022-11-11T13:22:25;10.70;;;4.00;;
57331;SDS011;43164;50.908;18.092;2022-11-11T13:44:57;10.30;;;3.30;;
57331;SDS011;43164;50.908;18.092;2022-11-11T13:47:43;14.50;;;4.20;;
57331;SDS011;43164;50.908;18.092;2022-11-11T14:01:25;12.50;;;3.40;;
57331;SDS011;43164;50.908;18.092;2022-11-11T14:04:16;12.60;;;4.10;;
57331;SDS011;43164;50.908;18.092;2022-11-11T14:58:52;12.20;;;5.20;;
57331;SDS011;43164;50.908;18.092;2022-11-11T15:01:24;12.90;;;5.10;;
57331;SDS011;43164;50.908;18.092;2022-11-11T15:24:35;14.80;;;6.00;;
57331;SDS011;43164;50.908;18.092;2022-11-11T15:45:23;18.80;;;7.10;;
57331;SDS011;43164;50.908;18.092;2022-11-11T15:48:56;14.00;;;6.60;;
57331;SDS011;43164;50.908;18.092;2022-11-11T16:04:20;21.20;;;8.10;;
57331;SDS011;43164;50.908;18.092;2022-11-11T16:14:18;16.00;;;7.90;;
57331;SDS011;43164;50.908;18.092;2022-11-11T16:17:09;15.40;;;7.80;;
57331;SDS011;43164;50.908;18.092;2022-11-11T16:20:05;15.50;;;6.80;;
57331;SDS011;43164;50.908;18.092;2022-11-11T16:22:50;16.50;;;7.60;;
57331;SDS011;43164;50.908;18.092;2022-11-11T16:25:37;18.30;;;9.20;;
57331;SDS011;43164;50.908;18.092;2022-11-11T16:31:41;24.80;;;9.90;;
57331;SDS011;43164;50.908;18.092;2022-11-11T16:37:07;29.30;;;14.20;;
57331;SDS011;43164;50.908;18.092;2022-11-11T16:39:46;20.40;;;10.40;;
57331;SDS011;43164;50.908;18.092;2022-11-11T16:45:05;21.60;;;10.20;;
57331;SDS011;43164;50.908;18.092;2022-11-11T16:47:55;20.90;;;10.20;;
57331;SDS011;43164;50.908;18.092;2022-11-11T16:50:27;21.40;;;10.20;;
57331;SDS011;43164;50.908;18.092;2022-11-11T16:53:32;24.60;;;10.90;;
57331;SDS011;43164;50.908;18.092;2022-11-11T16:56:13;24.70;;;11.20;;
57331;SDS011;43164;50.908;18.092;2022-11-11T16:59:00;25.80;;;12.60;;
57331;SDS011;43164;50.908;18.092;2022-11-11T17:01:42;24.00;;;11.50;;
57331;SDS011;43164;50.908;18.092;2022-11-11T17:07:39;30.80;;;15.00;;
57331;SDS011;43164;50.908;18.092;2022-11-11T17:10:16;31.70;;;15.60;;
57331;SDS011;43164;50.908;18.092;2022-11-11T17:12:52;32.60;;;15.70;;
57331;SDS011;43164;50.908;18.092;2022-11-11T17:28:28;30.60;;;14.60;;
57331;SDS011;43164;50.908;18.092;2022-11-11T17:51:20;21.80;;;10.60;;
57331;SDS011;43164;50.908;18.092;2022-11-11T17:53:59;20.90;;;10.50;;
57331;SDS011;43164;50.908;18.092;2022-11-11T18:03:56;24.90;;;10.70;;
57331;SDS011;43164;50.908;18.092;2022-11-11T18:10:22;27.90;;;12.80;;
57331;SDS011;43164;50.908;18.092;2022-11-11T18:12:55;25.80;;;11.60;;
57331;SDS011;43164;50.908;18.092;2022-11-11T18:19:12;27.10;;;12.20;;
57331;SDS011;43164;50.908;18.092;2022-11-11T18:21:48;24.40;;;12.00;;
57331;SDS011;43164;50.908;18.092;2022-11-11T18:24:23;22.50;;;11.50;;
57331;SDS011;43164;50.908;18.092;2022-11-11T18:26:52;21.10;;;9.70;;
57331;SDS011;43164;50.908;18.092;2022-11-11T18:29:28;22.10;;;10.30;;
57331;SDS011;43164;50.908;18.092;2022-11-11T18:32:10;21.80;;;10.10;;
57331;SDS011;43164;50.908;18.092;2022-11-11T18:34:41;21.80;;;10.50;;
57331;SDS011;43164;50.908;18.092;2022-11-11T18:37:13;20.10;;;9.70;;
57331;SDS011;43164;50.908;18.092;2022-11-11T18:45:21;20.40;;;8.80;;
57331;SDS011;43164;50.908;18.092;2022-11-11T18:50:57;20.50;;;9.50;;
57331;SDS011;43164;50.908;18.092;2022-11-11T18:53:31;23.50;;;11.10;;
57331;SDS011;43164;50.908;18.092;2022-11-11T18:56:04;24.40;;;11.90;;
57331;SDS011;43164;50.908;18.092;2022-11-11T18:58:46;42.00;;;22.20;;
57331;SDS011;43164;50.908;18.092;2022-11-11T19:01:21;28.30;;;14.50;;
57331;SDS011;43164;50.908;18.092;2022-11-11T19:03:59;28.00;;;14.40;;
57331;SDS011;43164;50.908;18.092;2022-11-11T19:06:34;23.50;;;11.60;;
57331;SDS011;43164;50.908;18.092;2022-11-11T19:09:10;27.50;;;13.30;;
57331;SDS011;43164;50.908;18.092;2022-11-11T19:11:43;28.30;;;13.40;;
57331;SDS011;43164;50.908;18.092;2022-11-11T19:14:32;27.80;;;13.40;;
57331;SDS011;43164;50.908;18.092;2022-11-11T19:17:15;24.40;;;11.60;;
57331;SDS011;43164;50.908;18.092;2022-11-11T19:23:14;20.60;;;10.10;;
57331;SDS011;43164;50.908;18.092;2022-11-11T19:25:55;22.70;;;9.30;;
57331;SDS011;43164;50.908;18.092;2022-11-11T19:28:46;21.50;;;10.60;;
57331;SDS011;43164;50.908;18.092;2022-11-11T20:04:40;20.60;;;9.20;;
57331;SDS011;43164;50.908;18.092;2022-11-11T20:07:32;30.00;;;9.90;;
57331;SDS011;43164;50.908;18.092;2022-11-11T20:13:27;24.10;;;11.90;;
57331;SDS011;43164;50.908;18.092;2022-11-11T20:16:02;21.30;;;10.30;;
57331;SDS011;43164;50.908;18.092;2022-11-11T20:18:53;18.80;;;8.70;;
57331;SDS011;43164;50.908;18.092;2022-11-11T20:28:09;18.90;;;8.70;;
57331;SDS011;43164;50.908;18.092;2022-11-11T20:30:46;17.50;;;8.40;;
57331;SDS011;43164;50.908;18.092;2022-11-11T20:36:40;18.90;;;8.40;;
57331;SDS011;43164;50.908;18.092;2022-11-11T20:46:24;24.00;;;10.70;;
57331;SDS011;43164;50.908;18.092;2022-11-11T21:14:06;30.90;;;14.20;;
57331;SDS011;43164;50.908;18.092;2022-11-11T21:34:52;22.10;;;9.90;;
57331;SDS011;43164;50.908;18.092;2022-11-11T21:41:23;27.50;;;12.30;;
57331;SDS011;43164;50.908;18.092;2022-11-11T21:50:37;24.70;;;12.60;;
57331;SDS011;43164;50.908;18.092;2022-11-11T21:56:48;25.80;;;12.40;;
57331;SDS011;43164;50.908;18.092;2022-11-11T21:59:29;25.20;;;10.70;;
57331;SDS011;43164;50.908;18.092;2022-11-11T22:01:58;21.80;;;9.20;;
57331;SDS011;43164;50.908;18.092;2022-11-11T22:04:27;20.20;;;10.40;;
57331;SDS011;43164;50.908;18.092;2022-11-11T22:06:56;18.70;;;9.30;;
57331;SDS011;43164;50.908;18.092;2022-11-11T22:09:26;21.20;;;10.30;;
57331;SDS011;43164;50.908;18.092;2022-11-11T22:11:55;23.70;;;11.20;;
57331;SDS011;43164;50.908;18.092;2022-11-11T22:17:51;27.80;;;12.20;;
57331;SDS011;43164;50.908;18.092;2022-11-11T22:20:25;27.40;;;12.80;;
57331;SDS011;43164;50.908;18.092;2022-11-11T22:26:09;25.90;;;12.20;;
57331;SDS011;43164;50.908;18.092;2022-11-11T22:31:34;28.70;;;13.40;;
57331;SDS011;43164;50.908;18.092;2022-11-11T22:34:06;28.00;;;13.30;;
57331;SDS011;43164;50.908;18.092;2022-11-11T22:36:40;29.80;;;13.30;;
57331;SDS011;43164;50.908;18.092;2022-11-11T22:39:21;28.70;;;12.90;;
57331;SDS011;43164;50.908;18.092;2022-11-11T22:41:55;27.10;;;12.70;;
57331;SDS011;43164;50.908;18.092;2022-11-11T22:44:31;25.20;;;13.20;;
57331;SDS011;43164;50.908;18.092;2022-11-11T22:47:02;28.00;;;13.10;;
57331;SDS011;43164;50.908;18.092;2022-11-11T22:49:33;31.30;;;13.30;;
57331;SDS011;43164;50.908;18.092;2022-11-11T22:52:07;28.30;;;13.40;;
57331;SDS011;43164;50.908;18.092;2022-11-11T22:54:40;25.30;;;12.10;;
57331;SDS011;43164;50.908;18.092;2022-11-11T22:57:15;22.20;;;11.00;;
57331;SDS011;43164;50.908;18.092;2022-11-11T22:59:46;21.60;;;10.30;;
57331;SDS011;43164;50.908;18.092;2022-11-11T23:02:21;24.80;;;11.40;;
57331;SDS011;43164;50.908;18.092;2022-11-11T23:04:52;26.30;;;11.60;;
57331;SDS011;43164;50.908;18.092;2022-11-11T23:07:37;27.60;;;11.80;;
57331;SDS011;43164;50.908;18.092;2022-11-11T23:10:07;24.40;;;11.80;;
57331;SDS011;43164;50.908;18.092;2022-11-11T23:12:52;25.00;;;11.40;;
57331;SDS011;43164;50.908;18.092;2022-11-11T23:15:24;23.30;;;10.20;;
57331;SDS011;43164;50.908;18.092;2022-11-11T23:17:52;27.30;;;11.30;;
57331;SDS011;43164;50.908;18.092;2022-11-11T23:20:21;24.80;;;11.40;;
57331;SDS011;43164;50.908;18.092;2022-11-11T23:23:02;22.70;;;11.10;;
57331;SDS011;43164;50.908;18.092;2022-11-11T23:25:34;23.00;;;11.30;;
57331;SDS011;43164;50.908;18.092;2022-11-11T23:28:04;24.50;;;11.60;;
57331;SDS011;43164;50.908;18.092;2022-11-11T23:30:33;24.70;;;11.80;;
57331;SDS011;43164;50.908;18.092;2022-11-11T23:33:14;24.80;;;11.10;;
57331;SDS011;43164;50.908;18.092;2022-11-11T23:35:42;26.50;;;12.30;;
57331;SDS011;43164;50.908;18.092;2022-11-11T23:38:22;25.00;;;11.70;;
57331;SDS011;43164;50.908;18.092;2022-11-11T23:40:49;25.40;;;12.20;;
57331;SDS011;43164;50.908;18.092;2022-11-11T23:43:18;24.30;;;11.20;;
57331;SDS011;43164;50.908;18.092;2022-11-11T23:45:46;24.30;;;12.30;;
57331;SDS011;43164;50.908;18.092;2022-11-11T23:48:14;23.50;;;12.00;;
57331;SDS011;43164;50.908;18.092;2022-11-11T23:50:42;26.60;;;12.50;;
57331;SDS011;43164;50.908;18.092;2022-11-11T23:53:10;25.70;;;12.90;;
57331;SDS011;43164;50.908;18.092;2022-11-11T23:55:37;24.80;;;12.80;;
57331;SDS011;43164;50.908;18.092;2022-11-11T23:58:05;25.30;;;13.00;;
